createdAt,value
2023-02-09T00:00:13.600Z,97258.59
2023-02-09T00:01:18.997Z,97270.13
2023-02-09T00:02:21.035Z,97264.34
2023-02-09T00:03:25.126Z,97267.00
2023-02-09T00:04:27.161Z,97265.34
2023-02-09T00:05:31.223Z,97247.06
2023-02-09T00:06:33.494Z,97268.94
2023-02-09T00:07:35.768Z,97264.63
2023-02-09T00:08:37.781Z,97262.81
2023-02-09T00:09:39.951Z,97255.38
2023-02-09T00:10:41.690Z,97255.13
2023-02-09T00:12:02.031Z,97279.91
2023-02-09T00:13:22.073Z,97257.16
2023-02-09T00:14:24.128Z,97274.53
2023-02-09T00:15:25.980Z,97270.78
2023-02-09T00:16:27.846Z,97264.53
2023-02-09T00:17:29.639Z,97272.34
2023-02-09T00:18:33.140Z,97267.56
2023-02-09T00:19:35.653Z,97268.75
2023-02-09T00:20:37.476Z,97268.28
2023-02-09T00:21:39.808Z,97267.63
2023-02-09T00:22:41.597Z,97265.38
2023-02-09T00:23:44.034Z,97269.66
2023-02-09T00:24:45.983Z,97270.66
2023-02-09T00:25:47.777Z,97260.13
2023-02-09T00:26:49.781Z,97255.19
2023-02-09T00:27:52.014Z,97260.13
2023-02-09T00:28:54.004Z,97265.25
2023-02-09T00:29:55.873Z,97252.22
2023-02-09T00:30:58.164Z,97252.94
2023-02-09T00:32:02.248Z,97267.13
2023-02-09T00:33:04.069Z,97249.19
2023-02-09T00:34:06.718Z,97262.22
2023-02-09T00:35:08.664Z,97263.38
2023-02-09T00:36:13.233Z,97256.97
2023-02-09T00:37:15.667Z,97238.94
2023-02-09T00:38:19.509Z,97241.41
2023-02-09T00:39:22.010Z,97250.84
2023-02-09T00:40:26.979Z,97260.56
2023-02-09T00:41:48.100Z,97251.03
2023-02-09T00:42:49.993Z,97251.19
2023-02-09T00:43:52.385Z,97258.59
2023-02-09T00:44:55.742Z,97252.69
2023-02-09T00:45:57.712Z,97247.06
2023-02-09T00:46:59.787Z,97261.09
2023-02-09T00:48:02.034Z,97264.81
2023-02-09T00:49:05.198Z,97255.03
2023-02-09T00:50:08.634Z,97249.69
2023-02-09T00:51:10.313Z,97256.75
2023-02-09T00:52:12.166Z,97256.22
2023-02-09T00:53:15.669Z,97256.22
2023-02-09T00:54:17.769Z,97245.09
2023-02-09T00:55:20.493Z,97252.00
2023-02-09T00:56:22.473Z,97243.66
2023-02-09T00:57:24.377Z,97239.72
2023-02-09T00:58:26.059Z,97251.91
2023-02-09T00:59:30.336Z,97257.31
2023-02-09T01:00:32.242Z,97251.69
2023-02-09T01:01:34.064Z,97248.19
2023-02-09T01:02:36.686Z,97256.16
2023-02-09T01:03:38.378Z,97247.47
2023-02-09T01:04:40.295Z,97235.75
2023-02-09T01:05:42.553Z,97244.81
2023-02-09T01:06:44.402Z,97248.13
2023-02-09T01:07:46.263Z,97232.53
2023-02-09T01:08:49.070Z,97239.50
2023-02-09T01:09:52.083Z,97247.28
2023-02-09T01:10:53.886Z,97240.22
2023-02-09T01:11:56.549Z,97236.81
2023-02-09T01:12:58.672Z,97250.38
2023-02-09T01:14:04.618Z,97239.47
2023-02-09T01:15:07.500Z,97241.81
2023-02-09T01:16:12.003Z,97244.31
2023-02-09T01:17:15.395Z,97227.97
2023-02-09T01:18:17.782Z,97231.03
2023-02-09T01:19:19.695Z,97233.94
2023-02-09T01:20:22.888Z,97230.63
2023-02-09T01:21:24.936Z,97237.41
2023-02-09T01:22:26.812Z,97234.00
2023-02-09T01:23:28.948Z,97237.84
2023-02-09T01:24:30.913Z,97240.78
2023-02-09T01:25:32.797Z,97220.16
2023-02-09T01:26:36.030Z,97242.78
2023-02-09T01:27:40.618Z,97246.19
2023-02-09T01:28:43.116Z,97234.84
2023-02-09T01:29:45.619Z,97241.56
2023-02-09T01:30:48.763Z,97236.31
2023-02-09T01:31:51.144Z,97224.75
2023-02-09T01:32:55.454Z,97217.84
2023-02-09T01:33:59.344Z,97250.28
2023-02-09T01:35:02.504Z,97223.00
2023-02-09T01:36:05.577Z,97230.59
2023-02-09T01:37:07.321Z,97242.13
2023-02-09T01:38:09.277Z,97233.75
2023-02-09T01:39:12.777Z,97232.47
2023-02-09T01:40:15.256Z,97225.19
2023-02-09T01:41:18.042Z,97218.22
2023-02-09T01:42:21.287Z,97239.06
2023-02-09T01:43:23.139Z,97233.97
2023-02-09T01:44:24.918Z,97230.88
2023-02-09T01:45:44.551Z,97235.19
2023-02-09T01:46:46.502Z,97226.13
2023-02-09T01:47:56.601Z,97228.22
2023-02-09T01:49:08.292Z,97225.75
2023-02-09T01:50:10.398Z,97210.25
2023-02-09T01:51:13.058Z,97226.56
2023-02-09T01:52:26.566Z,97218.28
2023-02-09T01:53:29.040Z,97213.00
2023-02-09T01:54:38.503Z,97221.91
2023-02-09T01:55:47.004Z,97214.38
2023-02-09T01:56:55.885Z,97200.25
2023-02-09T01:57:59.571Z,97232.69
2023-02-09T01:59:01.554Z,97223.38
2023-02-09T02:00:15.087Z,97239.97
2023-02-09T02:01:18.916Z,97224.47
2023-02-09T02:02:22.041Z,97233.53
2023-02-09T02:03:26.600Z,97230.69
2023-02-09T02:04:31.160Z,97236.00
2023-02-09T02:05:35.769Z,97226.94
2023-02-09T02:06:37.823Z,97231.44
2023-02-09T02:08:31.309Z,97233.75
2023-02-09T02:09:34.474Z,97221.56
2023-02-09T02:10:36.425Z,97231.06
2023-02-09T02:11:39.286Z,97226.09
2023-02-09T02:12:44.450Z,97220.97
2023-02-09T02:13:46.618Z,97218.69
2023-02-09T02:14:50.205Z,97222.34
2023-02-09T02:16:12.970Z,97225.81
2023-02-09T02:17:39.797Z,97218.69
2023-02-09T02:19:09.292Z,97212.44
2023-02-09T02:20:20.405Z,97215.91
2023-02-09T02:21:42.314Z,97209.31
2023-02-09T02:22:56.575Z,97214.50
2023-02-09T02:24:06.721Z,97209.44
2023-02-09T02:25:49.557Z,97210.56
2023-02-09T02:27:12.147Z,97207.38
2023-02-09T02:29:05.091Z,97205.03
2023-02-09T02:30:26.786Z,97205.56
2023-02-09T02:31:50.645Z,97201.72
2023-02-09T02:33:08.938Z,97200.06
2023-02-09T02:34:39.248Z,97199.41
2023-02-09T02:35:58.312Z,97191.13
2023-02-09T02:37:36.587Z,97190.22
2023-02-09T02:38:39.782Z,97192.88
2023-02-09T02:39:59.647Z,97181.09
2023-02-09T02:41:18.489Z,97193.00
2023-02-09T02:42:52.263Z,97194.19
2023-02-09T02:44:04.416Z,97185.94
2023-02-09T02:45:11.548Z,97180.94
2023-02-09T02:46:21.315Z,97185.34
2023-02-09T02:47:24.750Z,97184.75
2023-02-09T02:48:41.763Z,97177.69
2023-02-09T02:49:51.716Z,97180.16
2023-02-09T02:50:57.518Z,97179.75
2023-02-09T02:52:04.161Z,97182.59
2023-02-09T02:53:07.703Z,97180.75
2023-02-09T02:54:22.351Z,97182.59
2023-02-09T02:55:25.966Z,97188.47
2023-02-09T02:56:34.868Z,97196.00
2023-02-09T02:57:40.784Z,97193.03
2023-02-09T02:58:45.517Z,97196.84
2023-02-09T02:59:52.286Z,97201.47
2023-02-09T03:00:57.725Z,97201.31
2023-02-09T03:02:26.628Z,97200.59
2023-02-09T03:03:33.717Z,97200.19
2023-02-09T03:04:40.230Z,97198.53
2023-02-09T03:05:43.672Z,97202.38
2023-02-09T03:06:45.904Z,97202.38
2023-02-09T03:07:47.644Z,97206.50
2023-02-09T03:08:56.850Z,97202.56
2023-02-09T03:09:58.803Z,97201.66
2023-02-09T03:11:01.137Z,97192.88
2023-02-09T03:12:18.188Z,97201.13
2023-02-09T03:13:38.656Z,97208.09
2023-02-09T03:14:43.490Z,97205.94
2023-02-09T03:16:00.879Z,97209.38
2023-02-09T03:17:07.870Z,97205.78
2023-02-09T03:18:12.917Z,97207.94
2023-02-09T03:19:33.457Z,97202.16
2023-02-09T03:20:52.464Z,97204.34
2023-02-09T03:22:12.798Z,97207.66
2023-02-09T03:23:42.975Z,97199.44
2023-02-09T03:24:54.513Z,97196.50
2023-02-09T03:25:57.275Z,97201.44
2023-02-09T03:27:01.366Z,97204.25
2023-02-09T03:28:08.802Z,97203.41
2023-02-09T03:29:11.115Z,97201.97
2023-02-09T03:30:15.216Z,97193.66
2023-02-09T03:31:17.218Z,97199.72
2023-02-09T03:32:20.227Z,97194.75
2023-02-09T03:33:25.157Z,97203.19
2023-02-09T03:34:27.938Z,97209.31
2023-02-09T03:35:37.656Z,97203.75
2023-02-09T03:36:40.754Z,97205.03
2023-02-09T03:37:42.276Z,97204.84
2023-02-09T03:38:44.236Z,97207.34
2023-02-09T03:39:45.926Z,97203.34
2023-02-09T03:40:47.667Z,97199.22
2023-02-09T03:41:49.290Z,97204.69
2023-02-09T03:42:51.024Z,97198.41
2023-02-09T03:44:11.156Z,97202.03
2023-02-09T03:45:13.240Z,97201.38
2023-02-09T03:46:14.929Z,97204.84
2023-02-09T03:47:16.640Z,97204.03
2023-02-09T03:48:18.297Z,97199.94
2023-02-09T03:49:20.034Z,97205.03
2023-02-09T03:50:21.792Z,97203.78
2023-02-09T03:51:23.529Z,97204.41
2023-02-09T03:52:25.413Z,97195.66
2023-02-09T03:53:27.187Z,97202.13
2023-02-09T03:54:30.342Z,97203.41
2023-02-09T03:55:32.415Z,97205.28
2023-02-09T03:56:34.618Z,97207.91
2023-02-09T03:57:36.372Z,97207.09
2023-02-09T03:58:38.131Z,97205.13
2023-02-09T03:59:39.825Z,97210.13
2023-02-09T04:00:41.536Z,97207.53
2023-02-09T04:01:43.254Z,97201.06
2023-02-09T04:02:45.435Z,97202.69
2023-02-09T04:03:47.303Z,97206.34
2023-02-09T04:04:49.108Z,97204.22
2023-02-09T04:05:50.994Z,97204.22
2023-02-09T04:06:53.028Z,97203.91
2023-02-09T04:07:54.691Z,97202.41
2023-02-09T04:08:56.608Z,97203.69
2023-02-09T04:09:58.277Z,97195.94
2023-02-09T04:11:00.299Z,97193.75
2023-02-09T04:12:01.955Z,97196.38
2023-02-09T04:13:03.969Z,97194.47
2023-02-09T04:14:06.268Z,97204.16
2023-02-09T04:15:08.940Z,97195.06
2023-02-09T04:16:10.860Z,97193.31
2023-02-09T04:17:12.572Z,97189.84
2023-02-09T04:18:14.193Z,97192.75
2023-02-09T04:19:15.884Z,97190.59
2023-02-09T04:20:18.027Z,97188.09
2023-02-09T04:21:19.821Z,97184.63
2023-02-09T04:22:21.476Z,97191.22
2023-02-09T04:23:23.139Z,97192.25
2023-02-09T04:24:24.989Z,97197.31
2023-02-09T04:25:26.683Z,97198.81
2023-02-09T04:26:29.293Z,97199.66
2023-02-09T04:27:30.972Z,97189.72
2023-02-09T04:28:32.726Z,97192.25
2023-02-09T04:29:34.463Z,97194.22
2023-02-09T04:30:36.405Z,97200.69
2023-02-09T04:31:38.270Z,97202.16
2023-02-09T04:32:40.065Z,97205.13
2023-02-09T04:33:41.840Z,97200.81
2023-02-09T04:34:43.575Z,97206.25
2023-02-09T04:35:45.634Z,97208.09
2023-02-09T04:36:47.778Z,97214.88
2023-02-09T04:37:49.445Z,97216.06
2023-02-09T04:38:51.309Z,97213.88
2023-02-09T04:39:52.938Z,97212.56
2023-02-09T04:40:55.602Z,97216.19
2023-02-09T04:41:57.754Z,97221.50
2023-02-09T04:42:59.404Z,97225.19
2023-02-09T04:44:01.140Z,97220.34
2023-02-09T04:45:03.607Z,97222.16
2023-02-09T04:46:05.393Z,97216.31
2023-02-09T04:47:07.728Z,97216.16
2023-02-09T04:48:14.381Z,97225.41
2023-02-09T04:49:16.655Z,97218.63
2023-02-09T04:50:18.315Z,97226.03
2023-02-09T04:51:20.191Z,97229.47
2023-02-09T04:52:22.107Z,97214.78
2023-02-09T04:53:23.935Z,97220.25
2023-02-09T04:54:25.781Z,97228.53
2023-02-09T04:55:27.616Z,97220.13
2023-02-09T04:56:29.311Z,97217.69
2023-02-09T04:57:49.785Z,97222.63
2023-02-09T04:59:10.043Z,97223.09
2023-02-09T05:00:12.675Z,97216.91
2023-02-09T05:01:18.891Z,97219.22
2023-02-09T05:02:20.645Z,97208.00
2023-02-09T05:03:24.667Z,97214.81
2023-02-09T05:04:26.551Z,97213.88
2023-02-09T05:05:29.426Z,97212.47
2023-02-09T05:06:31.129Z,97215.38
2023-02-09T05:07:32.819Z,97215.88
2023-02-09T05:08:34.567Z,97219.75
2023-02-09T05:09:36.219Z,97217.22
2023-02-09T05:10:37.902Z,97209.75
2023-02-09T05:11:39.706Z,97207.94
2023-02-09T05:12:41.906Z,97207.72
2023-02-09T05:13:43.819Z,97208.31
2023-02-09T05:14:47.624Z,97200.25
2023-02-09T05:15:49.392Z,97204.84
2023-02-09T05:16:51.659Z,97198.81
2023-02-09T05:17:53.381Z,97206.09
2023-02-09T05:18:55.649Z,97206.56
2023-02-09T05:19:57.310Z,97207.38
2023-02-09T05:20:58.961Z,97199.88
2023-02-09T05:22:00.879Z,97207.00
2023-02-09T05:23:03.087Z,97211.69
2023-02-09T05:24:05.220Z,97208.06
2023-02-09T05:25:07.130Z,97217.16
2023-02-09T05:26:10.138Z,97214.75
2023-02-09T05:27:12.019Z,97218.06
2023-02-09T05:28:13.767Z,97225.34
2023-02-09T05:29:15.494Z,97223.53
2023-02-09T05:30:17.430Z,97221.22
2023-02-09T05:31:19.349Z,97229.34
2023-02-09T05:32:21.085Z,97223.94
2023-02-09T05:33:24.413Z,97221.19
2023-02-09T05:34:26.382Z,97222.34
2023-02-09T05:35:30.743Z,97226.34
2023-02-09T05:36:32.434Z,97228.34
2023-02-09T05:37:34.145Z,97224.22
2023-02-09T05:38:36.914Z,97235.00
2023-02-09T05:39:38.555Z,97227.38
2023-02-09T05:40:40.205Z,97239.13
2023-02-09T05:42:00.745Z,97232.84
2023-02-09T05:43:03.388Z,97229.34
2023-02-09T05:44:05.515Z,97230.34
2023-02-09T05:45:07.904Z,97232.69
2023-02-09T05:46:09.664Z,97233.16
2023-02-09T05:47:12.054Z,97229.97
2023-02-09T05:48:13.764Z,97233.28
2023-02-09T05:49:15.475Z,97236.19
2023-02-09T05:50:17.234Z,97230.00
2023-02-09T05:51:18.968Z,97223.97
2023-02-09T05:52:20.712Z,97230.19
2023-02-09T05:53:22.358Z,97228.91
2023-02-09T05:54:24.028Z,97232.06
2023-02-09T05:55:25.907Z,97242.16
2023-02-09T05:56:29.031Z,97240.78
2023-02-09T05:57:30.906Z,97237.97
2023-02-09T05:58:32.571Z,97239.91
2023-02-09T05:59:34.486Z,97241.47
2023-02-09T06:00:36.531Z,97237.75
2023-02-09T06:01:38.390Z,97246.03
2023-02-09T06:02:40.305Z,97257.16
2023-02-09T06:03:42.351Z,97248.38
2023-02-09T06:04:44.143Z,97245.25
2023-02-09T06:05:46.504Z,97242.47
2023-02-09T06:06:48.241Z,97247.41
2023-02-09T06:07:50.430Z,97246.94
2023-02-09T06:08:52.568Z,97245.31
2023-02-09T06:09:54.252Z,97248.91
2023-02-09T06:10:56.616Z,97241.31
2023-02-09T06:11:58.261Z,97249.22
2023-02-09T06:13:00.375Z,97237.84
2023-02-09T06:14:02.126Z,97239.66
2023-02-09T06:15:04.178Z,97237.75
2023-02-09T06:16:06.362Z,97245.91
2023-02-09T06:17:08.023Z,97253.69
2023-02-09T06:18:09.868Z,97253.00
2023-02-09T06:19:15.935Z,97250.50
2023-02-09T06:20:19.264Z,97253.81
2023-02-09T06:21:21.027Z,97258.56
2023-02-09T06:22:22.741Z,97258.47
2023-02-09T06:23:24.593Z,97255.00
2023-02-09T06:24:26.350Z,97256.75
2023-02-09T06:25:28.248Z,97262.53
2023-02-09T06:26:29.860Z,97267.19
2023-02-09T06:27:31.589Z,97266.00
2023-02-09T06:28:33.426Z,97263.34
2023-02-09T06:29:35.192Z,97264.34
2023-02-09T06:30:37.444Z,97266.94
2023-02-09T06:31:41.778Z,97269.53
2023-02-09T06:32:43.760Z,97266.56
2023-02-09T06:33:45.446Z,97265.13
2023-02-09T06:34:47.105Z,97266.38
2023-02-09T06:35:52.078Z,97264.13
2023-02-09T06:36:54.037Z,97271.88
2023-02-09T06:37:58.982Z,97270.25
2023-02-09T06:39:01.153Z,97263.75
2023-02-09T06:40:03.271Z,97269.22
2023-02-09T06:41:05.674Z,97272.91
2023-02-09T06:42:07.523Z,97276.00
2023-02-09T06:43:09.263Z,97272.81
2023-02-09T06:44:12.066Z,97276.94
2023-02-09T06:45:14.333Z,97272.09
2023-02-09T06:46:16.045Z,97278.06
2023-02-09T06:47:17.695Z,97278.41
2023-02-09T06:48:19.344Z,97267.78
2023-02-09T06:49:23.961Z,97275.31
2023-02-09T06:50:25.972Z,97273.44
2023-02-09T06:51:27.852Z,97269.78
2023-02-09T06:52:29.677Z,97269.72
2023-02-09T06:53:31.647Z,97273.03
2023-02-09T06:54:33.273Z,97274.31
2023-02-09T06:55:35.882Z,97277.34
2023-02-09T06:56:37.525Z,97276.59
2023-02-09T06:57:39.264Z,97277.72
2023-02-09T06:58:41.833Z,97284.53
2023-02-09T06:59:43.459Z,97283.41
2023-02-09T07:00:46.414Z,97278.56
2023-02-09T07:01:54.632Z,97279.66
2023-02-09T07:02:58.711Z,97280.13
2023-02-09T07:04:00.399Z,97281.22
2023-02-09T07:05:02.241Z,97278.38
2023-02-09T07:06:24.159Z,97282.78
2023-02-09T07:07:26.111Z,97273.41
2023-02-09T07:08:27.857Z,97278.63
2023-02-09T07:09:29.551Z,97286.44
2023-02-09T07:10:31.250Z,97286.53
2023-02-09T07:11:33.024Z,97285.22
2023-02-09T07:12:34.863Z,97284.00
2023-02-09T07:13:38.341Z,97285.25
2023-02-09T07:14:40.008Z,97281.88
2023-02-09T07:15:41.829Z,97289.97
2023-02-09T07:16:43.783Z,97284.94
2023-02-09T07:17:45.426Z,97283.22
2023-02-09T07:18:47.099Z,97290.22
2023-02-09T07:19:48.728Z,97283.34
2023-02-09T07:20:57.127Z,97275.16
2023-02-09T07:21:58.868Z,97277.84
2023-02-09T07:23:01.561Z,97289.09
2023-02-09T07:24:03.306Z,97287.13
2023-02-09T07:25:05.598Z,97288.97
2023-02-09T07:26:10.894Z,97290.31
2023-02-09T07:27:12.522Z,97287.97
2023-02-09T07:28:14.457Z,97287.19
2023-02-09T07:29:16.300Z,97284.34
2023-02-09T07:30:20.730Z,97281.91
2023-02-09T07:31:22.747Z,97283.56
2023-02-09T07:32:24.568Z,97284.91
2023-02-09T07:33:26.170Z,97288.81
2023-02-09T07:34:27.826Z,97287.13
2023-02-09T07:35:29.514Z,97281.81
2023-02-09T07:36:31.231Z,97286.56
2023-02-09T07:37:35.158Z,97293.50
2023-02-09T07:38:37.470Z,97290.72
2023-02-09T07:39:39.234Z,97288.03
2023-02-09T07:40:46.391Z,97293.00
2023-02-09T07:41:48.345Z,97296.22
2023-02-09T07:42:51.655Z,97301.84
2023-02-09T07:43:53.487Z,97299.44
2023-02-09T07:44:55.128Z,97304.25
2023-02-09T07:46:01.584Z,97299.13
2023-02-09T07:47:03.444Z,97300.81
2023-02-09T07:48:05.353Z,97300.44
2023-02-09T07:49:07.077Z,97303.19
2023-02-09T07:50:09.504Z,97306.13
2023-02-09T07:51:15.801Z,97308.19
2023-02-09T07:52:17.458Z,97303.50
2023-02-09T07:53:19.241Z,97303.88
2023-02-09T07:54:21.617Z,97297.53
2023-02-09T07:55:23.743Z,97295.88
2023-02-09T07:56:26.119Z,97296.06
2023-02-09T07:57:28.070Z,97291.13
2023-02-09T07:58:29.727Z,97299.16
2023-02-09T07:59:31.380Z,97303.69
2023-02-09T08:00:33.078Z,97298.31
2023-02-09T08:01:35.897Z,97299.28
2023-02-09T08:02:38.178Z,97307.56
2023-02-09T08:03:43.407Z,97302.19
2023-02-09T08:04:45.253Z,97298.88
2023-02-09T08:05:54.141Z,97298.59
2023-02-09T08:06:55.805Z,97301.41
2023-02-09T08:07:57.724Z,97296.94
2023-02-09T08:09:02.336Z,97297.13
2023-02-09T08:10:04.380Z,97298.91
2023-02-09T08:11:06.150Z,97304.16
2023-02-09T08:12:08.401Z,97303.56
2023-02-09T08:13:10.406Z,97298.22
2023-02-09T08:14:27.773Z,97303.56
2023-02-09T08:15:53.580Z,97303.16
2023-02-09T08:17:18.034Z,97306.59
2023-02-09T08:18:22.612Z,97305.06
2023-02-09T08:19:24.675Z,97303.31
2023-02-09T08:20:28.726Z,97297.19
2023-02-09T08:21:33.095Z,97301.97
2023-02-09T08:22:38.749Z,97302.53
2023-02-09T08:23:42.600Z,97300.25
2023-02-09T08:24:44.628Z,97307.53
2023-02-09T08:25:47.974Z,97308.38
2023-02-09T08:26:50.283Z,97306.53
2023-02-09T08:27:52.382Z,97307.91
2023-02-09T08:28:54.742Z,97299.78
2023-02-09T08:29:58.181Z,97308.03
2023-02-09T08:31:00.117Z,97304.47
2023-02-09T08:32:01.983Z,97298.13
2023-02-09T08:33:03.849Z,97301.75
2023-02-09T08:34:05.757Z,97300.75
2023-02-09T08:35:08.017Z,97293.31
2023-02-09T08:36:10.852Z,97299.50
2023-02-09T08:37:12.479Z,97292.38
2023-02-09T08:38:14.325Z,97301.88
2023-02-09T08:39:15.963Z,97299.06
2023-02-09T08:40:17.894Z,97310.59
2023-02-09T08:41:19.768Z,97305.47
2023-02-09T08:42:21.432Z,97309.56
2023-02-09T08:43:23.136Z,97304.41
2023-02-09T08:44:24.887Z,97308.13
2023-02-09T08:45:26.681Z,97302.75
2023-02-09T08:46:28.970Z,97311.56
2023-02-09T08:47:30.682Z,97303.03
2023-02-09T08:48:36.499Z,97311.59
2023-02-09T08:49:38.263Z,97303.63
2023-02-09T08:50:40.119Z,97308.88
2023-02-09T08:51:42.258Z,97299.50
2023-02-09T08:52:43.985Z,97294.31
2023-02-09T08:53:52.231Z,97298.22
2023-02-09T08:54:54.449Z,97294.75
2023-02-09T08:55:56.498Z,97299.53
2023-02-09T08:56:58.247Z,97288.69
2023-02-09T08:57:59.992Z,97306.38
2023-02-09T08:59:01.859Z,97290.28
2023-02-09T09:00:05.127Z,97298.88
2023-02-09T09:01:06.841Z,97301.50
2023-02-09T09:02:08.694Z,97302.06
2023-02-09T09:03:10.469Z,97301.41
2023-02-09T09:04:12.228Z,97304.88
2023-02-09T09:05:14.588Z,97289.75
2023-02-09T09:06:16.516Z,97303.56
2023-02-09T09:07:18.225Z,97291.22
2023-02-09T09:08:19.923Z,97292.44
2023-02-09T09:09:21.609Z,97295.34
2023-02-09T09:10:23.518Z,97291.94
2023-02-09T09:11:25.239Z,97290.94
2023-02-09T09:12:26.952Z,97294.50
2023-02-09T09:13:29.000Z,97294.72
2023-02-09T09:14:31.858Z,97287.19
2023-02-09T09:15:35.302Z,97293.69
2023-02-09T09:16:37.106Z,97290.34
2023-02-09T09:17:38.964Z,97290.97
2023-02-09T09:18:41.132Z,97291.88
2023-02-09T09:19:42.953Z,97282.09
2023-02-09T09:20:44.890Z,97289.50
2023-02-09T09:21:46.556Z,97283.63
2023-02-09T09:22:48.443Z,97296.84
2023-02-09T09:23:50.143Z,97288.25
2023-02-09T09:24:54.421Z,97296.94
2023-02-09T09:26:03.765Z,97299.34
2023-02-09T09:27:05.515Z,97294.47
2023-02-09T09:28:08.083Z,97289.03
2023-02-09T09:29:10.042Z,97290.97
2023-02-09T09:30:12.499Z,97296.06
2023-02-09T09:31:16.728Z,97301.84
2023-02-09T09:32:24.645Z,97297.13
2023-02-09T09:33:26.867Z,97297.63
2023-02-09T09:34:29.030Z,97297.94
2023-02-09T09:35:31.185Z,97297.34
2023-02-09T09:36:33.015Z,97302.56
2023-02-09T09:37:34.812Z,97302.56
2023-02-09T09:38:37.880Z,97301.38
2023-02-09T09:39:39.648Z,97305.53
2023-02-09T09:40:42.916Z,97304.38
2023-02-09T09:41:47.208Z,97306.00
2023-02-09T09:42:52.096Z,97303.69
2023-02-09T09:43:54.719Z,97309.56
2023-02-09T09:44:56.714Z,97305.88
2023-02-09T09:45:58.799Z,97304.53
2023-02-09T09:47:04.193Z,97307.16
2023-02-09T09:48:07.605Z,97310.78
2023-02-09T09:49:20.229Z,97310.53
2023-02-09T09:50:29.020Z,97307.34
2023-02-09T09:51:46.329Z,97309.81
2023-02-09T09:53:01.384Z,97304.69
2023-02-09T09:54:05.475Z,97307.91
2023-02-09T09:55:08.868Z,97308.00
2023-02-09T09:56:11.458Z,97313.09
2023-02-09T09:57:25.298Z,97303.81
2023-02-09T09:58:27.681Z,97308.47
2023-02-09T09:59:34.968Z,97303.47
2023-02-09T10:00:39.930Z,97310.38
2023-02-09T10:01:41.629Z,97314.63
2023-02-09T10:02:44.643Z,97318.38
2023-02-09T10:03:46.612Z,97301.91
2023-02-09T10:04:48.725Z,97314.06
2023-02-09T10:05:56.564Z,97315.41
2023-02-09T10:07:05.148Z,97316.75
2023-02-09T10:08:16.727Z,97320.56
2023-02-09T10:09:41.923Z,97315.00
2023-02-09T10:10:59.448Z,97309.22
2023-02-09T10:12:12.083Z,97310.78
2023-02-09T10:13:22.105Z,97312.38
2023-02-09T10:14:23.830Z,97309.66
2023-02-09T10:15:32.768Z,97314.25
2023-02-09T10:16:38.215Z,97303.72
2023-02-09T10:17:40.230Z,97312.63
2023-02-09T10:18:42.801Z,97314.72
2023-02-09T10:20:00.047Z,97310.34
2023-02-09T10:21:07.803Z,97308.06
2023-02-09T10:22:13.758Z,97310.88
2023-02-09T10:23:24.708Z,97303.25
2023-02-09T10:24:32.326Z,97307.00
2023-02-09T10:25:52.176Z,97307.81
2023-02-09T10:27:17.667Z,97299.03
2023-02-09T10:28:24.856Z,97298.41
2023-02-09T10:29:27.445Z,97301.34
2023-02-09T10:30:29.181Z,97303.56
2023-02-09T10:31:39.091Z,97300.03
2023-02-09T10:32:43.725Z,97296.28
2023-02-09T10:33:46.479Z,97291.50
2023-02-09T10:34:51.302Z,97289.50
2023-02-09T10:35:58.778Z,97298.25
2023-02-09T10:37:34.040Z,97296.97
2023-02-09T10:38:39.663Z,97293.50
2023-02-09T10:39:41.415Z,97291.59
2023-02-09T10:40:43.623Z,97287.59
2023-02-09T10:41:48.399Z,97291.88
2023-02-09T10:42:56.013Z,97293.41
2023-02-09T10:43:57.895Z,97293.72
2023-02-09T10:45:27.207Z,97286.69
2023-02-09T10:46:29.723Z,97288.03
2023-02-09T10:47:31.814Z,97283.41
2023-02-09T10:48:41.268Z,97269.94
2023-02-09T10:49:43.030Z,97282.34
2023-02-09T10:51:01.026Z,97283.09
2023-02-09T10:52:12.568Z,97282.69
2023-02-09T10:53:41.721Z,97283.03
2023-02-09T10:54:48.775Z,97280.59
2023-02-09T10:55:51.540Z,97275.97
2023-02-09T10:56:53.623Z,97263.81
2023-02-09T10:58:10.766Z,97281.78
2023-02-09T10:59:24.082Z,97282.19
2023-02-09T11:00:30.085Z,97272.97
2023-02-09T11:01:41.992Z,97275.00
2023-02-09T11:02:56.596Z,97283.66
2023-02-09T11:04:17.840Z,97274.06
2023-02-09T11:05:22.641Z,97278.47
2023-02-09T11:06:24.584Z,97270.78
2023-02-09T11:07:31.884Z,97261.09
2023-02-09T11:09:21.222Z,97267.47
2023-02-09T11:10:23.668Z,97257.22
2023-02-09T11:11:30.201Z,97268.09
2023-02-09T11:12:32.040Z,97268.91
2023-02-09T11:13:35.015Z,97262.50
2023-02-09T11:14:36.980Z,97264.94
2023-02-09T11:15:44.874Z,97268.84
2023-02-09T11:17:04.482Z,97266.56
2023-02-09T11:18:15.742Z,97275.88
2023-02-09T11:19:22.513Z,97265.09
2023-02-09T11:20:30.810Z,97267.41
2023-02-09T11:21:54.983Z,97272.09
2023-02-09T11:23:07.018Z,97277.63
2023-02-09T11:24:32.996Z,97267.66
2023-02-09T11:26:08.342Z,97271.44
2023-02-09T11:27:15.916Z,97271.28
2023-02-09T11:28:58.415Z,97274.13
2023-02-09T11:30:09.470Z,97272.13
2023-02-09T11:31:24.523Z,97271.63
2023-02-09T11:32:35.035Z,97272.75
2023-02-09T11:34:10.344Z,97270.94
2023-02-09T11:35:13.659Z,97278.09
2023-02-09T11:36:36.434Z,97274.19
2023-02-09T11:37:47.279Z,97274.75
2023-02-09T11:39:34.190Z,97276.63
2023-02-09T11:40:40.291Z,97273.19
2023-02-09T11:42:15.206Z,97271.63
2023-02-09T11:43:36.648Z,97283.38
2023-02-09T11:44:44.619Z,97286.59
2023-02-09T11:45:49.005Z,97279.78
2023-02-09T11:46:55.186Z,97279.50
2023-02-09T11:48:11.438Z,97284.31
2023-02-09T11:49:18.407Z,97246.50
2023-02-09T11:50:25.506Z,97247.88
2023-02-09T11:51:27.756Z,97241.72
2023-02-09T11:52:38.873Z,97245.78
2023-02-09T11:53:59.382Z,97248.44
2023-02-09T11:55:03.606Z,97235.63
2023-02-09T11:56:08.765Z,97234.22
2023-02-09T11:57:19.469Z,97232.75
2023-02-09T11:58:39.500Z,97235.44
2023-02-09T11:59:52.253Z,97231.09
2023-02-09T12:01:14.439Z,97232.75
2023-02-09T12:02:47.460Z,97227.81
2023-02-09T12:04:02.009Z,97225.66
2023-02-09T12:05:04.043Z,97230.28
2023-02-09T12:06:05.944Z,97221.72
2023-02-09T12:07:23.616Z,97223.78
2023-02-09T12:08:38.614Z,97231.72
2023-02-09T12:10:07.778Z,97230.97
2023-02-09T12:11:15.718Z,97228.78
2023-02-09T12:12:31.438Z,97228.63
2023-02-09T12:13:42.661Z,97223.53
2023-02-09T12:14:49.847Z,97224.13
2023-02-09T12:15:58.381Z,97226.75
2023-02-09T12:17:30.414Z,97224.78
2023-02-09T12:18:33.939Z,97223.19
2023-02-09T12:19:38.146Z,97230.13
2023-02-09T12:20:58.694Z,97227.16
2023-02-09T12:22:35.414Z,97230.78
2023-02-09T12:23:38.852Z,97225.25
2023-02-09T12:24:40.859Z,97225.22
2023-02-09T12:25:51.197Z,97213.47
2023-02-09T12:26:56.571Z,97218.41
2023-02-09T12:28:14.843Z,97217.34
2023-02-09T12:29:21.966Z,97217.09
2023-02-09T12:30:42.046Z,97215.72
2023-02-09T12:32:08.924Z,97218.00
2023-02-09T12:33:19.396Z,97216.44
2023-02-09T12:34:27.804Z,97217.63
2023-02-09T12:35:38.070Z,97221.59
2023-02-09T12:37:00.255Z,97221.72
2023-02-09T12:38:15.253Z,97211.69
2023-02-09T12:39:24.215Z,97220.91
2023-02-09T12:40:36.234Z,97217.66
2023-02-09T12:41:40.672Z,97222.88
2023-02-09T12:42:47.160Z,97222.44
2023-02-09T12:43:50.599Z,97214.34
2023-02-09T12:44:57.239Z,97215.66
2023-02-09T12:46:20.091Z,97220.72
2023-02-09T12:47:41.691Z,97216.00
2023-02-09T12:49:02.003Z,97214.09
2023-02-09T12:50:05.413Z,97207.28
2023-02-09T12:51:45.415Z,97203.50
2023-02-09T12:53:24.527Z,97202.09
2023-02-09T12:54:45.228Z,97203.00
2023-02-09T12:56:25.995Z,97199.75